Latest Coastal Weather Observations for St Helens

IDT60701

Issued at 10:25 pm EDT Saturday 25 October 2014 (issued every 10 minutes, with the page automatically refreshed every 10 minutes)

About coastal observations | Map of coastal stations | Coastal observations for TAS | Marine services | Other Formats
Station Details ID: 092120 Name: ST HELENS AERODROME Lat: -41.34 Lon: 148.28 Height: 48.0 m
Data from the previous 72 hours. | See also: Recent months at St Helens
Date/Time
EDT
Temp

°C
Wind Pressure Rain
since 9am
mm
Weather Cloud Vis
km
Sea
Height
m
Swell
Dir
 
Speed
knots
Gust
knots
hPa Trend Height
m
Period
s
Dir
25/10:00pm 12.1 SE 2 4 1017.9 - 2.0 - - - - - - -
25/09:30pm 12.2 SSE 3 6 1018.2 - 1.4 - - - - - - -
25/09:00pm 12.2 S 4 6 1018.0 - 0.8 - - - - - - -
25/08:30pm 12.1 S 4 8 1017.9 - 0.8 - - - - - - -
25/08:00pm 12.1 S 4 7 1017.4 - 0.8 - - - - - - -
25/07:30pm 12.3 SSE 4 6 1017.2 - 0.8 - - - - - - -
25/07:00pm 12.4 SSE 3 5 1017.1 - 0.6 - - - - - - -
25/06:30pm 12.5 SSE 3 5 1016.9 - 0.4 - - - - - - -
25/06:00pm 12.6 SSE 5 9 1016.8 - 0.0 - - - - - - -
25/05:30pm 13.1 S 6 11 1016.6 - 0.0 - - - - - - -
25/05:00pm 13.7 S 7 13 1016.6 - 0.0 - - - - - - -
25/04:30pm 14.2 S 6 12 1016.3 - 0.0 - - - - - - -
25/04:00pm 14.6 SSE 6 11 1016.1 - 0.0 - - - - - - -
25/03:30pm 14.6 SE 5 9 1016.1 - 0.0 - - - - - - -
25/03:00pm 14.8 SE 5 9 1016.2 - 0.0 - - - - - - -
25/02:30pm 14.9 ESE 5 10 1016.3 - 0.0 - - - - - - -
25/02:00pm 15.0 SE 5 10 1016.4 - 0.0 - - - - - - -
25/01:30pm 15.3 ESE 6 10 1016.3 - 0.0 - - - - - - -
25/01:00pm 15.4 ESE 6 13 1016.2 - 0.0 - - - - - - -
25/12:30pm 16.5 SSE 6 11 1015.9 - 0.0 - - - - - - -
25/12:00pm 17.0 ESE 7 11 1016.2 - 0.0 - - - - - - -
25/11:30am 17.2 SE 5 8 1016.1 - 0.0 - - - - - - -
25/11:00am 15.5 SE 4 7 1016.2 - 0.0 - - - - - - -
25/10:30am 16.1 ESE 3 6 1015.8 - 0.0 - - - - - - -
25/10:00am 15.2 ESE 4 9 1015.7 - 0.0 - - - - - - -
25/09:30am 15.1 SE 5 8 1015.5 - 0.0 - - - - - - -
25/09:00am 15.2 S 6 10 1015.1 - 2.4 - - - - - - -
25/08:30am 14.7 S 5 9 1014.8 - 2.4 - - - - - - -
25/08:00am 13.9 S 4 7 1014.3 - 2.4 - - - - - - -
25/07:30am 11.4 NW 3 5 1013.8 - 2.4 - - - - - - -
25/07:00am 10.7 NW 3 5 1013.1 - 2.4 - - - - - - -
25/06:30am 10.5 NW 5 7 1012.5 - 2.4 - - - - - - -
25/06:00am 10.1 N 3 5 1011.9 - 2.4 - - - - - - -
25/05:30am 11.0 NW 4 6 1011.4 - 2.4 - - - - - - -
25/05:00am 11.2 W 3 5 1010.8 - 2.4 - - - - - - -
25/04:30am 11.0 N 5 6 1010.4 - 2.4 - - - - - - -
25/04:00am 11.0 NW 3 5 1010.0 - 2.4 - - - - - - -
25/03:30am 11.5 NW 4 6 1009.5 - 2.4 - - - - - - -
25/03:00am 11.5 CALM 0 0 1009.0 - 2.4 - - - - - - -
25/02:30am 11.3 SSW 1 6 1009.2 - 2.4 - - - - - - -
25/02:00am 12.3 NW 5 6 1008.8 - 2.4 - - - - - - -
25/01:30am 12.6 NW 5 6 1008.9 - 2.2 - - - - - - -
25/01:00am 13.2 NNW 5 6 1008.7 - 2.2 - - - - - - -
25/12:30am 13.8 NNW 4 5 1008.9 - 2.2 - - - - - - -
25/12:00am 14.4 NNW 2 4 1008.9 - 2.2 - - - - - - -
 
Date/Time
EDT
Temp

°C
Wind Pressure Rain
since 9am
mm
Weather Cloud Vis
km
Sea
Height
m
Swell
Dir
 
Speed
knots
Gust
knots
hPa Trend Height
m
Period
s
Dir
24/11:30pm 14.8 N 5 6 1008.9 - 2.2 - - - - - - -
24/11:00pm 14.8 N 3 4 1009.4 - 2.2 - - - - - - -
24/10:30pm 15.2 E 1 4 1009.5 - 2.2 - - - - - - -
24/10:00pm 15.5 NNW 3 5 1009.5 - 2.2 - - - - - - -
24/09:30pm 15.6 N 2 4 1009.7 - 2.2 - - - - - - -
24/09:00pm 15.6 N 1 4 1009.7 - 2.2 - - - - - - -
24/08:30pm 15.7 NNW 1 4 1010.0 - 2.2 - - - - - - -
24/08:00pm 15.7 N 3 5 1009.8 - 2.2 - - - - - - -
24/07:30pm 15.7 N 7 9 1010.1 - 2.2 - - - - - - -
24/07:00pm 15.7 N 7 10 1010.0 - 2.2 - - - - - - -
24/06:30pm 15.5 N 6 9 1010.1 - 1.8 - - - - - - -
24/06:00pm 15.4 NNE 6 10 1010.4 - 1.6 - - - - - - -
24/05:30pm 15.2 NNE 5 7 1011.0 - 1.0 - - - - - - -
24/05:00pm 15.2 N 5 8 1011.5 - 0.6 - - - - - - -
24/04:30pm 15.2 NNE 5 9 1011.7 - 0.4 - - - - - - -
24/04:00pm 15.4 NNE 5 8 1012.3 - 0.0 - - - - - - -
24/03:30pm 15.4 NNE 4 11 1013.0 - 0.0 - - - - - - -
24/03:00pm 15.7 NE 7 11 1013.5 - 0.0 - - - - - - -
24/02:30pm 15.9 NE 8 12 1014.4 - 0.0 - - - - - - -
24/02:00pm 16.0 NE 9 15 1015.0 - 0.0 - - - - - - -
24/01:30pm 16.1 NE 10 14 1015.5 - 0.0 - - - - - - -
24/01:00pm 15.8 NE 9 13 1016.0 - 0.0 - - - - - - -
24/12:30pm 15.5 NE 8 12 1016.6 - 0.0 - - - - - - -
24/12:00pm 15.4 NE 11 15 1017.0 - 0.0 - - - - - - -
24/11:30am 15.2 NE 10 14 1017.5 - 0.0 - - - - - - -
24/11:00am 14.9 NE 9 14 1018.1 - 0.0 - - - - - - -
24/10:30am 14.4 NE 10 15 1018.5 - 0.0 - - - - - - -
24/10:00am 14.5 ENE 9 14 1018.9 - 0.0 - - - - - - -
24/09:30am 14.3 ENE 8 13 1019.4 - 0.0 - - - - - - -
24/09:00am 14.0 ENE 6 9 1020.0 - 0.0 Drizzle Cloudy 8 - - - -
24/08:30am 13.7 ENE 9 11 1020.4 - 0.0 - - - - - - -
24/08:00am 13.7 E 8 13 1020.8 - 0.0 - - - - - - -
24/07:30am 13.4 ENE 9 13 1020.9 - 0.0 - - - - - - -
24/07:00am 12.9 E 7 9 1021.0 - 0.0 - - - - - - -
24/06:30am 13.1 ENE 8 11 1021.3 - 0.0 - - - - - - -
24/06:00am 12.9 E 7 10 1021.5 - 0.0 - - - - - - -
24/05:30am 12.8 E 7 11 1021.7 - 0.0 - - - - - - -
24/05:00am 12.8 E 7 11 1021.9 - 0.0 - - - - - - -
24/04:30am 12.6 E 5 8 1022.2 - 0.0 - - - - - - -
24/04:00am 12.5 E 5 8 1022.4 - 0.0 - - - - - - -
24/03:30am 12.1 ESE 2 5 1022.8 - 0.0 - - - - - - -
24/03:00am 12.2 E 4 9 1023.2 - 0.0 - - - - - - -
24/02:30am 12.2 E 6 9 1023.5 - 0.0 - - - - - - -
24/02:00am 12.2 E 8 11 1024.0 - 0.0 - - - - - - -
24/01:30am 12.2 E 6 11 1024.2 - 0.0 - - - - - - -
24/01:00am 12.1 E 6 9 1024.7 - 0.0 - - - - - - -
24/12:30am 12.0 E 5 8 1025.0 - 0.0 - - - - - - -
24/12:00am 12.0 ESE 3 9 1025.5 - 0.0 - - - - - - -
 
Date/Time
EDT
Temp

°C
Wind Pressure Rain
since 9am
mm
Weather Cloud Vis
km
Sea
Height
m
Swell
Dir
 
Speed
knots
Gust
knots
hPa Trend Height
m
Period
s
Dir
23/11:30pm 11.8 E 4 11 1025.7 - 0.0 - - - - - - -
23/11:00pm 11.9 SE 5 9 1026.2 - 0.0 - - - - - - -
23/10:30pm 11.8 SE 5 9 1026.3 - 0.0 - - - - - - -
23/10:00pm 11.6 SE 5 10 1026.4 - 0.0 - - - - - - -
23/09:30pm 11.7 SE 6 11 1026.5 - 0.0 - - - - - - -
23/09:00pm 11.7 ESE 6 10 1026.3 - 0.0 - - - - - - -
23/08:30pm 11.6 SE 6 11 1026.0 - 0.0 - - - - - - -
23/08:00pm 11.5 SE 5 10 1025.5 - 0.0 - - - - - - -
23/07:30pm 11.8 SE 6 13 1025.4 - 0.0 - - - - - - -
23/07:00pm 12.0 SE 7 13 1025.3 - 0.0 - - - - - - -
23/06:30pm 13.2 SSE 8 15 1025.1 - 0.0 - - - - - - -
23/06:00pm 13.5 SSE 8 16 1025.0 - 0.0 - - - - - - -
23/05:30pm 13.7 SE 7 14 1024.9 - 0.0 - - - - - - -
23/05:00pm 13.8 SE 9 17 1024.9 - 0.0 - - - - - - -
23/04:30pm 14.0 SSE 10 20 1024.8 - 0.0 - - - - - - -
23/04:00pm 14.0 S 11 17 1024.7 - 0.0 - - - - - - -
23/03:30pm 15.2 S 10 19 1024.7 - 0.0 - - - - - - -
23/03:00pm 15.0 SSE 8 19 1024.8 - 0.0 - - - - - - -
23/02:30pm 15.7 S 12 22 1024.9 - 0.0 - - - - - - -
23/02:00pm 14.1 S 12 22 1025.0 - 0.0 - - - - - - -
23/01:30pm 15.7 S 11 25 1025.1 - 0.0 - - - - - - -
23/01:00pm 15.1 SSE 9 20 1024.9 - 0.0 - - - - - - -
23/12:30pm 15.7 SSE 11 21 1024.8 - 0.0 - - - - - - -
23/12:00pm 14.7 SSE 12 26 1024.8 - 0.0 - - - - - - -
23/11:30am 15.2 S 12 28 1024.7 - 0.0 - - - - - - -
23/11:00am 15.4 S 12 22 1024.6 - 0.0 - - - - - - -
23/10:46am 14.6 S 15 27 1024.8 - 0.0 - - - - - - -
23/10:30am 14.6 S 12 24 1024.7 - 0.0 - - - - - - -
23/10:00am 14.1 S 14 24 1024.6 - 0.0 - - - - - - -
23/09:46am 13.5 S 15 26 1024.3 - 0.0 - - - - - - -
23/09:30am 13.4 S 14 25 1024.2 - 0.0 - - - - - - -
23/09:00am 13.2 S 13 25 1023.9 - 0.0 Haze Partly cloudy 15 - - - -
23/08:36am 12.8 S 15 29 1023.8 - 0.0 - - - - - - -
23/08:30am 12.9 S 13 25 1023.8 - 0.0 - - - - - - -
23/08:00am 12.2 S 13 24 1023.3 - 0.0 - - - - - - -
23/07:46am 12.4 S 15 27 1023.0 - 0.0 - - - - - - -
23/07:30am 12.4 S 12 23 1022.6 - 0.0 - - - - - - -
23/07:02am 12.0 S 15 27 1022.0 - 0.0 - - - - - - -
23/07:00am 12.0 S 14 27 1022.1 - 0.0 - - - - - - -
23/06:30am 11.8 S 15 32 1021.7 - 0.0 - - - - - - -
23/06:01am 11.9 S 15 27 1021.3 - 0.0 - - - - - - -
23/06:00am 11.9 S 14 27 1021.3 - 0.0 - - - - - - -
23/05:30am 11.8 SSE 17 29 1020.8 - 0.0 - - - - - - -
23/05:00am 12.4 S 16 29 1020.1 - 0.0 - - - - - - -
23/04:56am 12.3 SSE 15 25 1020.1 - 0.0 - - - - - - -
23/04:30am 12.8 SSE 12 23 1019.8 - 0.0 - - - - - - -
23/04:00am 13.3 SSE 13 22 1019.5 - 0.0 - - - - - - -
23/03:30am 13.4 SSE 13 22 1019.1 - 0.0 - - - - - - -
23/03:00am 13.4 SSE 11 23 1019.2 - 0.0 - - - - - - -
23/02:30am 13.3 SSE 11 20 1018.9 - 0.0 - - - - - - -
23/02:00am 13.4 SSE 11 20 1018.9 - 0.0 - - - - - - -
23/01:30am 13.8 S 12 22 1018.6 - 0.0 - - - - - - -
23/01:00am 13.5 SSE 10 18 1018.5 - 0.0 - - - - - - -
23/12:30am 13.4 S 11 23 1018.2 - 0.0 - - - - - - -
23/12:00am 13.9 S 11 22 1017.8 - 0.0 - - - - - - -
 
Date/Time
EDT
Temp

°C
Wind Pressure Rain
since 9am
mm
Weather Cloud Vis
km
Sea
Height
m
Swell
Dir
 
Speed
knots
Gust
knots
hPa Trend Height
m
Period
s
Dir
22/11:30pm 14.5 S 13 23 1017.1 - 0.0 - - - - - - -
22/11:05pm 15.4 S 15 25 1016.5 - 0.0 - - - - - - -
22/11:00pm 16.5 SE 8 17 1016.5 - 0.0 - - - - - - -
22/10:30pm 17.3 SSE 8 16 1015.9 - 0.0 - - - - - - -

Other Formats:

Comma delimited format used in spreadsheet applications
http://www.bom.gov.au/fwo/IDT60701/IDT60701.95981.axf

JavaScript Object Notation format (JSON) in row-major order
http://www.bom.gov.au/fwo/IDT60701/IDT60701.95981.json